createdAt,value
2022-10-15T00:01:47.172Z,5.18
2022-10-15T00:04:15.477Z,4.78
2022-10-15T00:06:43.816Z,6.18
2022-10-15T00:09:13.496Z,5.40
2022-10-15T00:11:41.805Z,5.78
2022-10-15T00:14:10.336Z,4.57
2022-10-15T00:16:38.882Z,6.07
2022-10-15T00:19:07.138Z,5.63
2022-10-15T00:21:35.359Z,5.38
2022-10-15T00:24:03.943Z,6.03
2022-10-15T00:26:33.696Z,5.75
2022-10-15T00:29:05.251Z,5.40
2022-10-15T00:31:34.184Z,5.35
2022-10-15T00:34:03.992Z,6.70
2022-10-15T00:36:35.749Z,5.90
2022-10-15T00:39:05.893Z,5.65
2022-10-15T00:41:39.305Z,6.05
2022-10-15T00:44:51.973Z,6.28
2022-10-15T00:47:27.879Z,5.63
2022-10-15T00:50:06.880Z,5.50
2022-10-15T00:52:44.891Z,6.65
2022-10-15T00:55:18.440Z,6.20
2022-10-15T00:57:51.992Z,6.13
2022-10-15T01:00:21.706Z,6.68
2022-10-15T01:02:50.342Z,6.65
2022-10-15T01:05:21.081Z,5.78
2022-10-15T01:07:49.624Z,5.47
2022-10-15T01:10:19.379Z,5.82
2022-10-15T01:12:59.681Z,5.72
2022-10-15T01:15:35.657Z,4.50
2022-10-15T01:18:11.075Z,5.63
2022-10-15T01:20:55.616Z,5.65
2022-10-15T01:24:22.167Z,4.93
2022-10-15T01:30:24.724Z,5.45
2022-10-15T01:33:23.752Z,4.00
2022-10-15T01:36:00.162Z,2.63
2022-10-15T01:38:44.948Z,2.65
2022-10-15T01:41:20.521Z,1.75
2022-10-15T01:43:59.514Z,1.45
2022-10-15T01:46:46.272Z,1.23
2022-10-15T01:49:26.108Z,1.60
2022-10-15T01:54:27.912Z,1.77
2022-10-15T01:56:58.564Z,2.22
2022-10-15T01:59:32.201Z,1.70
2022-10-15T02:02:02.015Z,1.70
2022-10-15T02:04:32.679Z,2.25
2022-10-15T02:07:06.946Z,2.50
2022-10-15T02:09:45.820Z,2.17
2022-10-15T02:12:34.951Z,2.30
2022-10-15T02:15:12.770Z,1.67
2022-10-15T02:17:47.292Z,1.52
2022-10-15T02:20:21.065Z,1.67
2022-10-15T02:22:57.235Z,1.80
2022-10-15T02:25:29.040Z,1.50
2022-10-15T02:28:00.151Z,1.70
2022-10-15T02:30:31.090Z,1.27
2022-10-15T02:33:01.467Z,1.88
2022-10-15T02:35:30.106Z,1.67
2022-10-15T02:38:03.068Z,1.40
2022-10-15T02:40:35.766Z,1.50
2022-10-15T02:43:09.513Z,1.42
2022-10-15T02:45:38.188Z,1.33
2022-10-15T02:48:09.109Z,1.20
2022-10-15T02:50:37.423Z,1.38
2022-10-15T02:53:06.887Z,1.60
2022-10-15T02:55:36.743Z,1.40
2022-10-15T02:58:04.931Z,1.58
2022-10-15T03:00:33.563Z,1.25
2022-10-15T03:03:02.203Z,1.58
2022-10-15T03:05:32.107Z,0.93
2022-10-15T03:08:01.305Z,1.45
2022-10-15T03:10:30.842Z,1.17
2022-10-15T03:13:04.487Z,1.10
2022-10-15T03:15:37.342Z,1.52
2022-10-15T03:18:06.193Z,0.90
2022-10-15T03:20:37.742Z,1.30
2022-10-15T03:23:06.035Z,1.23
2022-10-15T03:25:34.930Z,1.60
2022-10-15T03:28:06.180Z,1.25
2022-10-15T03:30:41.432Z,1.20
2022-10-15T03:33:09.896Z,1.05
2022-10-15T03:35:40.114Z,1.60
2022-10-15T03:38:10.188Z,1.23
2022-10-15T03:40:39.523Z,1.48
2022-10-15T03:43:25.229Z,2.13
2022-10-15T03:45:54.458Z,2.05
2022-10-15T03:48:26.016Z,1.38
2022-10-15T03:50:56.156Z,1.52
2022-10-15T03:53:25.028Z,1.50
2022-10-15T03:55:53.564Z,1.70
2022-10-15T03:58:21.869Z,1.92
2022-10-15T04:00:56.524Z,1.95
2022-10-15T04:03:24.788Z,1.60
2022-10-15T04:05:56.752Z,1.85
2022-10-15T04:08:29.599Z,1.63
2022-10-15T04:10:59.191Z,1.50
2022-10-15T04:13:28.320Z,1.48
2022-10-15T04:15:57.466Z,1.50
2022-10-15T04:18:25.877Z,1.63
2022-10-15T04:21:00.326Z,1.40
2022-10-15T04:23:28.975Z,1.30
2022-10-15T04:26:15.911Z,1.42
2022-10-15T04:28:44.335Z,1.58
2022-10-15T04:31:12.925Z,1.48
2022-10-15T04:33:42.057Z,1.55
2022-10-15T04:36:14.734Z,1.23
2022-10-15T04:38:54.200Z,1.23
2022-10-15T04:41:36.355Z,1.27
2022-10-15T04:44:08.537Z,1.33
2022-10-15T04:46:38.771Z,1.20
2022-10-15T04:51:53.754Z,1.50
2022-10-15T04:54:30.407Z,1.17
2022-10-15T04:57:03.619Z,1.20
2022-10-15T04:59:32.879Z,1.33
2022-10-15T05:02:36.497Z,1.42
2022-10-15T05:05:25.008Z,2.05
2022-10-15T05:08:02.247Z,1.27
2022-10-15T05:10:32.904Z,1.60
2022-10-15T05:13:05.607Z,1.85
2022-10-15T05:15:36.593Z,2.00
2022-10-15T05:18:08.160Z,2.30
2022-10-15T05:20:51.967Z,2.42
2022-10-15T05:23:22.918Z,1.80
2022-10-15T05:26:01.496Z,2.30
2022-10-15T05:28:30.139Z,2.30
2022-10-15T05:30:58.489Z,1.77
2022-10-15T05:33:28.773Z,1.70
2022-10-15T05:35:57.163Z,1.50
2022-10-15T05:38:27.008Z,1.77
2022-10-15T05:40:55.491Z,1.55
2022-10-15T05:43:25.798Z,1.60
2022-10-15T05:45:55.682Z,1.50
2022-10-15T05:48:24.651Z,1.52
2022-10-15T05:50:52.984Z,1.55
2022-10-15T05:53:28.093Z,1.40
2022-10-15T05:58:37.339Z,1.17
2022-10-15T06:01:08.286Z,1.23
2022-10-15T06:03:41.138Z,1.30
2022-10-15T06:06:16.604Z,1.27
2022-10-15T06:08:46.655Z,1.33
2022-10-15T06:11:15.399Z,2.30
2022-10-15T06:13:45.182Z,1.65
2022-10-15T06:16:19.282Z,1.50
2022-10-15T06:18:52.538Z,1.42
2022-10-15T06:21:21.237Z,1.27
2022-10-15T06:23:50.924Z,1.17
2022-10-15T06:26:19.415Z,1.40
2022-10-15T06:28:49.933Z,0.80
2022-10-15T06:31:18.197Z,0.90
2022-10-15T06:33:46.379Z,0.40
2022-10-15T06:36:15.657Z,1.13
2022-10-15T06:38:44.976Z,1.05
2022-10-15T06:41:14.569Z,2.25
2022-10-15T06:43:43.134Z,2.65
2022-10-15T06:46:11.557Z,1.60
2022-10-15T06:48:39.771Z,1.35
2022-10-15T06:51:08.133Z,0.93
2022-10-15T06:53:37.121Z,0.95
2022-10-15T06:56:06.040Z,1.20
2022-10-15T06:58:43.248Z,0.75
2022-10-15T07:01:11.949Z,0.90
2022-10-15T07:03:40.337Z,1.08
2022-10-15T07:06:10.672Z,0.90
2022-10-15T07:08:39.429Z,1.35
2022-10-15T07:11:09.688Z,0.82
2022-10-15T07:13:38.670Z,1.40
2022-10-15T07:16:11.565Z,1.33
2022-10-15T07:18:40.428Z,1.20
2022-10-15T07:23:44.412Z,1.25
2022-10-15T07:26:13.178Z,1.70
2022-10-15T07:28:41.766Z,1.88
2022-10-15T07:31:11.424Z,2.08
2022-10-15T07:33:39.801Z,2.17
2022-10-15T07:36:12.788Z,2.80
2022-10-15T07:38:43.211Z,2.45
2022-10-15T07:41:12.160Z,2.83
2022-10-15T07:43:44.231Z,2.85
2022-10-15T07:46:14.152Z,3.10
2022-10-15T07:48:42.358Z,2.80
2022-10-15T07:51:12.902Z,2.70
2022-10-15T07:53:41.455Z,2.17
2022-10-15T07:56:14.065Z,2.42
2022-10-15T07:58:43.270Z,2.47
2022-10-15T08:01:13.806Z,2.80
2022-10-15T08:03:42.023Z,2.33
2022-10-15T08:06:10.327Z,2.25
2022-10-15T08:08:39.138Z,2.00
2022-10-15T08:11:08.287Z,2.78
2022-10-15T08:13:38.878Z,2.58
2022-10-15T08:16:07.709Z,2.17
2022-10-15T08:18:38.085Z,2.00
2022-10-15T08:21:07.996Z,2.10
2022-10-15T08:23:36.886Z,2.22
2022-10-15T08:26:05.497Z,2.42
2022-10-15T08:28:35.703Z,1.83
2022-10-15T08:31:06.193Z,2.05
2022-10-15T08:33:37.105Z,1.77
2022-10-15T08:36:06.988Z,1.45
2022-10-15T08:38:35.676Z,2.03
2022-10-15T08:41:13.829Z,1.50
2022-10-15T08:43:44.306Z,1.50
2022-10-15T08:46:24.019Z,1.50
2022-10-15T08:48:57.335Z,1.60
2022-10-15T08:51:29.016Z,1.85
2022-10-15T08:54:02.941Z,1.45
2022-10-15T08:56:36.685Z,1.60
2022-10-15T08:59:14.603Z,0.68
2022-10-15T09:01:51.951Z,1.00
2022-10-15T09:04:31.849Z,1.08
2022-10-15T09:07:10.410Z,0.75
2022-10-15T09:09:48.276Z,1.05
2022-10-15T09:12:43.540Z,1.70
2022-10-15T09:15:16.697Z,1.80
2022-10-15T09:17:49.150Z,2.42
2022-10-15T09:20:31.253Z,2.75
2022-10-15T09:22:59.759Z,2.45
2022-10-15T09:25:37.064Z,3.63
2022-10-15T09:28:12.080Z,4.18
2022-10-15T09:30:47.670Z,4.57
2022-10-15T09:33:28.551Z,3.92
2022-10-15T09:36:18.179Z,4.53
2022-10-15T09:39:02.565Z,4.75
2022-10-15T09:41:40.481Z,4.63
2022-10-15T09:44:17.300Z,5.68
2022-10-15T09:46:51.565Z,4.05
2022-10-15T09:49:33.873Z,5.57
2022-10-15T09:52:12.485Z,5.40
2022-10-15T09:54:50.750Z,4.40
2022-10-15T09:57:23.397Z,4.82
2022-10-15T09:59:56.733Z,5.00
2022-10-15T10:02:29.473Z,4.10
2022-10-15T10:04:58.103Z,4.93
2022-10-15T10:07:35.103Z,4.85
2022-10-15T10:10:06.648Z,4.90
2022-10-15T10:12:38.314Z,3.80
2022-10-15T10:15:29.287Z,4.30
2022-10-15T10:17:58.602Z,4.55
2022-10-15T10:20:29.082Z,3.60
2022-10-15T10:23:00.849Z,3.72
2022-10-15T10:25:39.549Z,4.80
2022-10-15T10:28:22.527Z,2.92
2022-10-15T10:31:03.307Z,2.92
2022-10-15T10:33:36.885Z,3.00
2022-10-15T10:38:43.317Z,3.08
2022-10-15T10:41:13.174Z,3.65
2022-10-15T10:43:53.093Z,3.40
2022-10-15T10:46:24.352Z,3.40
2022-10-15T10:48:54.775Z,4.13
2022-10-15T10:51:25.611Z,2.50
2022-10-15T10:54:00.540Z,2.30
2022-10-15T10:56:36.611Z,1.83
2022-10-15T10:59:14.722Z,0.75
2022-10-15T11:01:43.383Z,0.80
2022-10-15T11:04:18.589Z,0.50
2022-10-15T11:07:01.678Z,0.63
2022-10-15T11:09:52.345Z,0.82
2022-10-15T11:12:53.199Z,0.90
2022-10-15T11:15:44.356Z,0.73
2022-10-15T11:18:50.156Z,0.50
2022-10-15T11:21:34.561Z,0.80
2022-10-15T11:24:13.692Z,0.90
2022-10-15T11:27:10.736Z,1.05
2022-10-15T11:29:56.073Z,1.70
2022-10-15T11:33:06.151Z,1.40
2022-10-15T11:35:54.702Z,1.58
2022-10-15T11:38:34.807Z,1.83
2022-10-15T11:41:25.072Z,1.50
2022-10-15T11:44:19.380Z,1.50
2022-10-15T11:46:59.684Z,1.30
2022-10-15T11:49:42.444Z,1.25
2022-10-15T11:52:52.064Z,1.10
2022-10-15T11:55:24.427Z,1.10
2022-10-15T11:58:00.511Z,0.70
2022-10-15T12:00:35.816Z,1.10
2022-10-15T12:03:11.616Z,1.10
2022-10-15T12:05:51.508Z,1.00
2022-10-15T12:08:21.799Z,0.70
2022-10-15T12:11:05.579Z,0.70
2022-10-15T12:13:41.883Z,0.47
2022-10-15T12:16:26.024Z,0.77
2022-10-15T12:19:17.084Z,0.63
2022-10-15T12:22:06.870Z,0.68
2022-10-15T12:24:56.435Z,0.50
2022-10-15T12:27:30.737Z,0.40
2022-10-15T12:30:25.947Z,0.40
2022-10-15T12:32:56.984Z,0.35
2022-10-15T12:35:38.092Z,0.40
2022-10-15T12:38:26.473Z,0.20
2022-10-15T12:41:06.243Z,0.30
2022-10-15T12:43:39.313Z,0.60
2022-10-15T12:46:10.891Z,0.40
2022-10-15T12:48:43.462Z,0.30
2022-10-15T12:51:39.559Z,0.70
2022-10-15T12:54:41.609Z,0.30
2022-10-15T12:57:58.246Z,0.22
2022-10-15T13:00:39.414Z,0.60
2022-10-15T13:03:36.338Z,0.40
2022-10-15T13:06:31.038Z,0.20
2022-10-15T13:09:27.622Z,0.30
2022-10-15T13:11:57.609Z,0.45
2022-10-15T13:14:36.832Z,0.40
2022-10-15T13:17:14.473Z,0.45
2022-10-15T13:19:50.708Z,0.32
2022-10-15T13:22:26.093Z,0.30
2022-10-15T13:24:55.767Z,0.20
2022-10-15T13:27:26.817Z,0.57
2022-10-15T13:30:01.272Z,0.30
2022-10-15T13:32:32.732Z,0.38
2022-10-15T13:35:02.102Z,0.20
2022-10-15T13:37:35.828Z,0.65
2022-10-15T13:40:07.998Z,0.43
2022-10-15T13:42:36.789Z,0.50
2022-10-15T13:45:17.043Z,0.57
2022-10-15T13:47:50.975Z,0.57
2022-10-15T13:50:24.849Z,0.30
2022-10-15T13:52:59.234Z,0.70
2022-10-15T13:55:30.078Z,0.32
2022-10-15T13:58:03.243Z,0.40
2022-10-15T14:00:35.783Z,0.40
2022-10-15T14:03:18.948Z,0.30
2022-10-15T14:05:49.355Z,0.47
2022-10-15T14:08:23.604Z,0.30
2022-10-15T14:10:54.626Z,0.30
2022-10-15T14:13:23.247Z,0.20
2022-10-15T14:16:13.713Z,0.40
2022-10-15T14:18:48.305Z,0.22
2022-10-15T14:21:20.827Z,0.15
2022-10-15T14:23:51.139Z,0.20
2022-10-15T14:26:25.573Z,0.30
2022-10-15T14:28:55.847Z,0.30
2022-10-15T14:31:39.218Z,0.70
2022-10-15T14:34:32.356Z,0.35
2022-10-15T14:37:01.332Z,0.47
2022-10-15T14:39:34.764Z,0.57
2022-10-15T14:42:06.077Z,0.30
2022-10-15T14:44:46.559Z,0.45
2022-10-15T14:47:22.951Z,0.43
2022-10-15T14:49:55.744Z,0.45
2022-10-15T14:52:24.722Z,0.50
2022-10-15T14:55:07.173Z,0.30
2022-10-15T14:57:41.152Z,0.55
2022-10-15T15:00:27.279Z,0.52
2022-10-15T15:02:57.737Z,0.63
2022-10-15T15:05:28.030Z,0.50
2022-10-15T15:08:00.119Z,0.65
2022-10-15T15:10:33.931Z,0.70
2022-10-15T15:13:02.896Z,0.35
2022-10-15T15:15:31.671Z,0.60
2022-10-15T15:17:59.912Z,0.70
2022-10-15T15:20:28.548Z,0.73
2022-10-15T15:22:57.279Z,0.63
2022-10-15T15:25:31.279Z,0.40
2022-10-15T15:28:01.363Z,0.60
2022-10-15T15:30:34.277Z,0.50
2022-10-15T15:33:02.523Z,0.80
2022-10-15T15:35:37.789Z,0.43
2022-10-15T15:38:08.615Z,0.50
2022-10-15T15:40:37.414Z,0.65
2022-10-15T15:43:06.961Z,0.50
2022-10-15T15:45:35.729Z,0.77
2022-10-15T15:48:05.214Z,0.63
2022-10-15T15:50:34.169Z,0.68
2022-10-15T15:53:03.051Z,0.60
2022-10-15T15:55:31.628Z,0.47
2022-10-15T15:57:59.812Z,0.80
2022-10-15T16:00:29.402Z,0.90
2022-10-15T16:02:58.343Z,0.98
2022-10-15T16:05:26.889Z,0.80
2022-10-15T16:07:55.384Z,1.20
2022-10-15T16:10:24.188Z,1.10
2022-10-15T16:12:52.688Z,1.38
2022-10-15T16:15:21.007Z,0.90
2022-10-15T16:17:50.611Z,1.30
2022-10-15T16:20:19.245Z,1.10
2022-10-15T16:22:51.177Z,1.23
2022-10-15T16:25:20.547Z,1.20
2022-10-15T16:27:51.638Z,1.17
2022-10-15T16:30:20.430Z,1.00
2022-10-15T16:32:51.160Z,1.30
2022-10-15T16:35:19.717Z,1.10
2022-10-15T16:37:48.199Z,1.00
2022-10-15T16:40:18.968Z,1.05
2022-10-15T16:42:47.418Z,1.30
2022-10-15T16:45:15.935Z,0.95
2022-10-15T16:47:44.310Z,1.05
2022-10-15T16:50:14.045Z,0.90
2022-10-15T16:52:42.638Z,0.82
2022-10-15T16:55:11.531Z,0.75
2022-10-15T16:57:41.298Z,0.98
2022-10-15T17:00:11.517Z,0.95
2022-10-15T17:02:39.704Z,0.70
2022-10-15T17:05:09.393Z,0.80
2022-10-15T17:07:38.951Z,1.00
2022-10-15T17:10:10.836Z,1.17
2022-10-15T17:12:42.227Z,1.35
2022-10-15T17:15:11.463Z,1.15
2022-10-15T17:17:40.010Z,1.27
2022-10-15T17:20:09.874Z,1.77
2022-10-15T17:22:39.524Z,1.80
2022-10-15T17:25:08.262Z,1.10
2022-10-15T17:27:36.562Z,1.30
2022-10-15T17:30:05.805Z,1.50
2022-10-15T17:32:34.369Z,1.58
2022-10-15T17:35:04.304Z,1.92
2022-10-15T17:37:32.799Z,2.00
2022-10-15T17:40:02.641Z,2.28
2022-10-15T17:42:30.820Z,2.08
2022-10-15T17:44:59.315Z,2.28
2022-10-15T17:47:27.795Z,1.88
2022-10-15T17:49:56.283Z,1.92
2022-10-15T17:52:24.497Z,2.47
2022-10-15T17:54:53.014Z,1.70
2022-10-15T17:57:22.823Z,1.27
2022-10-15T17:59:51.536Z,1.55
2022-10-15T18:02:19.955Z,1.98
2022-10-15T18:04:49.780Z,1.65
2022-10-15T18:07:19.770Z,1.70
2022-10-15T18:09:48.298Z,2.38
2022-10-15T18:12:16.506Z,2.13
2022-10-15T18:14:46.083Z,2.35
2022-10-15T18:17:15.213Z,2.05
2022-10-15T18:19:43.840Z,2.10
2022-10-15T18:22:12.237Z,1.65
2022-10-15T18:24:40.596Z,1.77
2022-10-15T18:27:09.100Z,1.52
2022-10-15T18:29:37.631Z,1.27
2022-10-15T18:32:07.526Z,1.50
2022-10-15T18:34:35.780Z,1.80
2022-10-15T18:37:04.025Z,1.77
2022-10-15T18:39:32.263Z,1.20
2022-10-15T18:42:00.530Z,1.50
2022-10-15T18:44:29.314Z,1.70
2022-10-15T18:46:57.860Z,1.60
2022-10-15T18:49:27.440Z,1.40
2022-10-15T18:51:56.119Z,1.42
2022-10-15T18:54:25.252Z,1.10
2022-10-15T18:56:53.783Z,1.13
2022-10-15T18:59:22.220Z,1.70
2022-10-15T19:01:50.816Z,1.27
2022-10-15T19:04:21.067Z,1.63
2022-10-15T19:06:53.446Z,1.88
2022-10-15T19:09:25.950Z,1.63
2022-10-15T19:11:57.058Z,1.67
2022-10-15T19:14:28.008Z,1.63
2022-10-15T19:16:56.766Z,1.83
2022-10-15T19:19:26.817Z,1.63
2022-10-15T19:21:59.974Z,3.00
2022-10-15T19:24:28.644Z,1.80
2022-10-15T19:26:57.208Z,1.70
2022-10-15T19:29:25.893Z,1.77
2022-10-15T19:31:56.742Z,1.55
2022-10-15T19:34:25.367Z,1.90
2022-10-15T19:36:53.842Z,1.95
2022-10-15T19:39:25.710Z,1.80
2022-10-15T19:41:54.649Z,1.67
2022-10-15T19:44:25.767Z,1.50
2022-10-15T19:46:55.489Z,1.00
2022-10-15T19:49:25.135Z,1.60
2022-10-15T19:51:53.769Z,1.40
2022-10-15T19:54:22.522Z,1.40
2022-10-15T19:56:52.205Z,1.40
2022-10-15T19:59:20.493Z,1.23
2022-10-15T20:01:48.719Z,1.38
2022-10-15T20:04:20.666Z,1.30
2022-10-15T20:06:52.499Z,1.05
2022-10-15T20:09:21.694Z,0.98
2022-10-15T20:11:51.283Z,1.17
2022-10-15T20:14:19.973Z,1.15
2022-10-15T20:16:48.556Z,1.27
2022-10-15T20:19:17.152Z,1.27
2022-10-15T20:21:46.085Z,1.67
2022-10-15T20:24:14.783Z,1.30
2022-10-15T20:26:43.311Z,1.30
2022-10-15T20:29:17.242Z,1.55
2022-10-15T20:31:45.836Z,1.30
2022-10-15T20:34:14.388Z,1.23
2022-10-15T20:36:42.986Z,1.95
2022-10-15T20:39:11.597Z,1.75
2022-10-15T20:41:40.136Z,1.75
2022-10-15T20:44:11.019Z,1.75
2022-10-15T20:46:45.349Z,1.80
2022-10-15T20:49:17.757Z,1.33
2022-10-15T20:51:46.398Z,1.40
2022-10-15T20:54:16.441Z,1.58
2022-10-15T20:56:44.764Z,1.73
2022-10-15T20:59:13.417Z,1.73
2022-10-15T21:01:43.028Z,1.52
2022-10-15T21:04:11.755Z,1.00
2022-10-15T21:06:40.355Z,1.65
2022-10-15T21:09:08.641Z,1.55
2022-10-15T21:11:42.645Z,1.30
2022-10-15T21:14:11.233Z,2.03
2022-10-15T21:16:40.116Z,1.98
2022-10-15T21:19:09.901Z,2.38
2022-10-15T21:21:39.148Z,2.55
2022-10-15T21:24:07.821Z,2.88
2022-10-15T21:26:36.290Z,2.58
2022-10-15T21:29:04.703Z,2.40
2022-10-15T21:31:33.311Z,2.75
2022-10-15T21:34:01.889Z,2.80
2022-10-15T21:36:31.425Z,3.17
2022-10-15T21:39:01.937Z,2.60
2022-10-15T21:41:32.414Z,2.97
2022-10-15T21:44:02.463Z,3.10
2022-10-15T21:46:31.633Z,2.60
2022-10-15T21:49:01.347Z,3.38
2022-10-15T21:51:33.223Z,2.38
2022-10-15T21:54:02.676Z,2.80
2022-10-15T21:56:31.506Z,3.40
2022-10-15T21:59:00.279Z,3.45
2022-10-15T22:01:31.435Z,3.08
2022-10-15T22:04:02.185Z,3.15
2022-10-15T22:06:32.720Z,2.72
2022-10-15T22:09:02.009Z,2.55
2022-10-15T22:11:32.634Z,3.05
2022-10-15T22:14:03.602Z,2.72
2022-10-15T22:16:35.013Z,3.08
2022-10-15T22:19:04.252Z,3.08
2022-10-15T22:21:36.361Z,2.90
2022-10-15T22:24:07.989Z,3.78
2022-10-15T22:26:39.299Z,2.60
2022-10-15T22:29:09.533Z,3.60
2022-10-15T22:31:37.730Z,3.33
2022-10-15T22:34:06.256Z,3.42
2022-10-15T22:36:35.832Z,2.85
2022-10-15T22:39:06.830Z,3.55
2022-10-15T22:41:39.543Z,3.08
2022-10-15T22:44:08.517Z,2.72
2022-10-15T22:46:39.382Z,3.05
2022-10-15T22:49:09.502Z,3.83
2022-10-15T22:51:39.143Z,2.95
2022-10-15T22:54:07.655Z,3.17
2022-10-15T22:56:36.888Z,2.97
2022-10-15T22:59:06.213Z,2.10
2022-10-15T23:01:36.035Z,1.88
2022-10-15T23:04:07.372Z,1.63
2022-10-15T23:06:38.457Z,1.60
2022-10-15T23:09:08.402Z,1.60
2022-10-15T23:11:40.042Z,1.75
2022-10-15T23:14:12.838Z,1.88
2022-10-15T23:16:43.077Z,1.77
2022-10-15T23:19:16.823Z,1.52
2022-10-15T23:21:48.739Z,1.40
2022-10-15T23:24:20.001Z,1.63
2022-10-15T23:26:49.120Z,1.27
2022-10-15T23:29:20.358Z,1.42
2022-10-15T23:31:50.128Z,1.00
2022-10-15T23:34:20.961Z,1.20
2022-10-15T23:36:51.433Z,1.05
2022-10-15T23:39:23.404Z,1.35
2022-10-15T23:41:51.994Z,1.00
2022-10-15T23:44:21.413Z,0.80
2022-10-15T23:46:50.014Z,1.05
2022-10-15T23:49:18.581Z,0.75
2022-10-15T23:51:47.180Z,0.50
2022-10-15T23:54:19.673Z,0.40
2022-10-15T23:56:48.543Z,0.40
2022-10-15T23:59:18.286Z,0.52
